Time,TemperatureF,DewpointF,PressureIn,WindDirection,WindDirectionDegrees,WindSpeedMPH,WindSpeedGustMPH,Humidity,HourlyPrecipIn,Conditions,Clouds,dailyrainin,SoftwareType,DateUTC
2013-08-17 00:12:00,68.5,64.0,29.97,NW,305,0.0,0.0,85,0.00,,,0.00,weatherlink.com 1.10,2013-08-17 05:12:00,
2013-08-17 00:27:00,67.8,63.0,29.96,NW,304,0.0,2.0,85,0.00,,,0.00,weatherlink.com 1.10,2013-08-17 05:27:00,
2013-08-17 00:42:00,67.4,63.0,29.96,NW,305,0.0,0.0,86,0.00,,,0.00,weatherlink.com 1.10,2013-08-17 05:42:00,
2013-08-17 00:57:00,66.8,63.0,29.96,NW,305,0.0,0.0,86,0.00,,,0.00,weatherlink.com 1.10,2013-08-17 05:57:00,
2013-08-17 01:12:00,66.4,63.0,29.96,NW,304,0.0,0.0,88,0.00,,,0.00,weatherlink.com 1.10,2013-08-17 06:12:00,
2013-08-17 01:27:00,66.2,63.0,29.96,NW,304,0.0,0.0,88,0.00,,,0.00,weatherlink.com 1.10,2013-08-17 06:27:00,
2013-08-17 01:42:00,66.6,63.0,29.96,NW,305,0.0,0.0,88,0.00,,,0.00,weatherlink.com 1.10,2013-08-17 06:42:00,
2013-08-17 01:57:00,66.9,63.0,29.96,WNW,297,0.0,0.0,87,0.00,,,0.00,weatherlink.com 1.10,2013-08-17 06:57:00,
2013-08-17 02:12:00,66.6,63.0,29.96,WNW,297,0.0,1.0,88,0.00,,,0.00,weatherlink.com 1.10,2013-08-17 07:12:00,
2013-08-17 02:27:00,66.9,63.0,29.95,WNW,296,0.0,1.0,87,0.00,,,0.00,weatherlink.com 1.10,2013-08-17 07:27:00,
2013-08-17 02:42:00,66.2,63.0,29.95,WNW,298,0.0,0.0,89,0.00,,,0.00,weatherlink.com 1.10,2013-08-17 07:42:00,
2013-08-17 02:57:00,65.5,63.0,29.95,WNW,298,0.0,0.0,90,0.00,,,0.00,weatherlink.com 1.10,2013-08-17 07:57:00,
2013-08-17 03:12:00,64.8,62.0,29.95,WNW,296,0.0,1.0,91,0.00,,,0.00,weatherlink.com 1.10,2013-08-17 08:12:00,
2013-08-17 03:27:00,64.5,62.0,29.95,WNW,298,0.0,0.0,91,0.00,,,0.00,weatherlink.com 1.10,2013-08-17 08:27:00,
2013-08-17 03:42:00,64.1,62.0,29.95,WNW,298,0.0,0.0,92,0.00,,,0.00,weatherlink.com 1.10,2013-08-17 08:42:00,
2013-08-17 03:57:00,63.9,62.0,29.95,WNW,298,0.0,1.0,92,0.00,,,0.00,weatherlink.com 1.10,2013-08-17 08:57:00,
2013-08-17 04:12:00,63.8,62.0,29.95,WNW,296,0.0,0.0,93,0.00,,,0.00,weatherlink.com 1.10,2013-08-17 09:12:00,
2013-08-17 04:27:00,64.1,62.0,29.95,WNW,296,0.0,1.0,93,0.00,,,0.00,weatherlink.com 1.10,2013-08-17 09:27:00,
2013-08-17 04:42:00,63.7,61.0,29.95,WNW,298,0.0,0.0,92,0.00,,,0.00,weatherlink.com 1.10,2013-08-17 09:42:00,
2013-08-17 04:57:00,63.7,62.0,29.95,WNW,296,0.0,0.0,93,0.00,,,0.00,weatherlink.com 1.10,2013-08-17 09:57:00,
2013-08-17 05:12:00,63.6,62.0,29.95,WSW,242,0.0,0.0,94,0.00,,,0.00,weatherlink.com 1.10,2013-08-17 10:12:00,
2013-08-17 05:27:00,63.4,62.0,29.95,WSW,242,0.0,0.0,94,0.00,,,0.00,weatherlink.com 1.10,2013-08-17 10:27:00,
2013-08-17 05:42:00,63.3,62.0,29.95,WSW,242,0.0,0.0,94,0.00,,,0.00,weatherlink.com 1.10,2013-08-17 10:42:00,
2013-08-17 05:57:00,63.2,62.0,29.95,WSW,241,0.0,0.0,94,0.00,,,0.00,weatherlink.com 1.10,2013-08-17 10:57:00,
2013-08-17 06:12:00,63.3,62.0,29.95,SW,225,0.0,1.0,95,0.00,,,0.00,weatherlink.com 1.10,2013-08-17 11:12:00,
2013-08-17 06:27:00,63.2,62.0,29.95,SW,226,0.0,0.0,95,0.00,,,0.00,weatherlink.com 1.10,2013-08-17 11:27:00,
2013-08-17 06:42:00,63.0,62.0,29.95,SW,225,0.0,0.0,95,0.00,,,0.00,weatherlink.com 1.10,2013-08-17 11:42:00,
2013-08-17 06:57:00,63.0,62.0,29.96,SW,225,0.0,0.0,95,0.00,,,0.00,weatherlink.com 1.10,2013-08-17 11:57:00,
2013-08-17 07:12:00,63.2,62.0,29.96,SW,226,0.0,0.0,96,0.00,,,0.00,weatherlink.com 1.10,2013-08-17 12:12:00,
2013-08-17 07:27:00,63.7,62.0,29.97,SW,226,0.0,1.0,95,0.00,,,0.00,weatherlink.com 1.10,2013-08-17 12:27:00,
2013-08-17 07:42:00,64.7,64.0,29.97,WSW,238,0.0,1.0,96,0.00,,,0.00,weatherlink.com 1.10,2013-08-17 12:42:00,
2013-08-17 07:57:00,67.1,66.0,29.98,WSW,237,0.0,1.0,96,0.00,,,0.00,weatherlink.com 1.10,2013-08-17 12:57:00,
2013-08-17 08:12:00,71.1,67.0,29.98,ESE,122,0.0,1.0,87,0.00,,,0.00,weatherlink.com 1.10,2013-08-17 13:12:00,
2013-08-17 08:28:00,71.8,67.0,29.99,ENE,61,0.0,4.0,84,0.00,,,0.00,weatherlink.com 1.10,2013-08-17 13:28:00,
2013-08-17 08:43:00,72.6,68.0,29.99,NNE,24,4.0,8.0,85,0.00,,,0.00,weatherlink.com 1.10,2013-08-17 13:43:00,
2013-08-17 08:58:00,73.7,68.0,29.99,NE,40,2.0,7.0,83,0.00,,,0.00,weatherlink.com 1.10,2013-08-17 13:58:00,
2013-08-17 09:13:00,74.6,69.0,29.99,NE,48,4.0,9.0,82,0.00,,,0.00,weatherlink.com 1.10,2013-08-17 14:13:00,
2013-08-17 09:28:00,75.3,69.0,30.00,NNE,19,5.0,7.0,80,0.00,,,0.00,weatherlink.com 1.10,2013-08-17 14:28:00,
2013-08-17 09:43:00,76.0,69.0,29.99,NNW,341,5.0,8.0,78,0.00,,,0.00,weatherlink.com 1.10,2013-08-17 14:43:00,
2013-08-17 09:58:00,77.2,70.0,29.99,ENE,76,3.0,9.0,77,0.00,,,0.00,weatherlink.com 1.10,2013-08-17 14:58:00,
2013-08-17 10:13:00,78.0,70.0,29.99,NW,322,3.0,5.0,76,0.00,,,0.00,weatherlink.com 1.10,2013-08-17 15:13:00,
2013-08-17 10:28:00,80.1,70.0,29.99,East,90,2.0,7.0,71,0.00,,,0.00,weatherlink.com 1.10,2013-08-17 15:28:00,
2013-08-17 10:43:00,82.2,70.0,29.99,NW,308,4.0,5.0,66,0.00,,,0.00,weatherlink.com 1.10,2013-08-17 15:43:00,
2013-08-17 10:58:00,84.4,71.0,29.99,SW,231,0.0,4.0,65,0.00,,,0.00,weatherlink.com 1.10,2013-08-17 15:58:00,
2013-08-17 11:13:00,83.2,68.0,29.99,WNW,292,4.0,7.0,60,0.00,,,0.00,weatherlink.com 1.10,2013-08-17 16:13:00,
2013-08-17 11:28:00,85.7,68.0,29.98,WSW,255,1.0,9.0,55,0.00,,,0.00,weatherlink.com 1.10,2013-08-17 16:28:00,
2013-08-17 11:43:00,85.4,67.0,29.98,SW,225,3.0,9.0,54,0.00,,,0.00,weatherlink.com 1.10,2013-08-17 16:43:00,
2013-08-17 11:58:00,85.0,65.0,29.98,NE,43,6.0,14.0,52,0.00,,,0.00,weatherlink.com 1.10,2013-08-17 16:58:00,
2013-08-17 12:13:00,85.9,65.0,29.97,North,350,1.0,11.0,49,0.00,,,0.00,weatherlink.com 1.10,2013-08-17 17:13:00,
2013-08-17 12:28:00,87.0,64.0,29.97,North,9,5.0,11.0,46,0.00,,,0.00,weatherlink.com 1.10,2013-08-17 17:28:00,
2013-08-17 12:43:00,87.2,65.0,29.96,NNW,338,9.0,13.0,47,0.00,,,0.00,weatherlink.com 1.10,2013-08-17 17:43:00,
2013-08-17 12:58:00,87.8,64.0,29.95,North,359,7.0,13.0,45,0.00,,,0.00,weatherlink.com 1.10,2013-08-17 17:58:00,
2013-08-17 13:13:00,88.3,63.0,29.95,WNW,302,2.0,14.0,43,0.00,,,0.00,weatherlink.com 1.10,2013-08-17 18:13:00,
2013-08-17 13:28:00,89.7,62.0,29.94,NNW,340,8.0,14.0,39,0.00,,,0.00,weatherlink.com 1.10,2013-08-17 18:28:00,
2013-08-17 13:43:00,89.9,61.0,29.93,WNW,287,5.0,12.0,38,0.00,,,0.00,weatherlink.com 1.10,2013-08-17 18:43:00,
2013-08-17 13:58:00,89.9,62.0,29.93,ENE,58,5.0,11.0,39,0.00,,,0.00,weatherlink.com 1.10,2013-08-17 18:58:00,
2013-08-17 14:13:00,91.1,59.0,29.92,North,350,8.0,13.0,34,0.00,,,0.00,weatherlink.com 1.10,2013-08-17 19:13:00,
2013-08-17 14:28:00,90.8,60.0,29.91,NNW,336,9.0,15.0,35,0.00,,,0.00,weatherlink.com 1.10,2013-08-17 19:28:00,
2013-08-17 14:43:00,91.1,58.0,29.91,NNE,30,2.0,11.0,33,0.00,,,0.00,weatherlink.com 1.10,2013-08-17 19:43:00,
2013-08-17 14:58:00,90.9,56.0,29.90,North,9,8.0,13.0,31,0.00,,,0.00,weatherlink.com 1.10,2013-08-17 19:58:00,
2013-08-17 15:14:00,92.4,59.0,29.90,North,11,8.0,12.0,32,0.00,,,0.00,weatherlink.com 1.10,2013-08-17 20:14:00,
2013-08-17 15:29:00,91.5,59.0,29.89,North,360,8.0,16.0,33,0.00,,,0.00,weatherlink.com 1.10,2013-08-17 20:29:00,
2013-08-17 15:44:00,92.0,58.0,29.89,NNW,328,6.0,12.0,32,0.00,,,0.00,weatherlink.com 1.10,2013-08-17 20:44:00,
2013-08-17 15:59:00,92.0,58.0,29.89,NNE,25,10.0,14.0,32,0.00,,,0.00,weatherlink.com 1.10,2013-08-17 20:59:00,
2013-08-17 16:14:00,91.8,56.0,29.88,NE,41,6.0,14.0,30,0.00,,,0.00,weatherlink.com 1.10,2013-08-17 21:14:00,
2013-08-17 16:29:00,91.6,57.0,29.88,East,89,3.0,12.0,31,0.00,,,0.00,weatherlink.com 1.10,2013-08-17 21:29:00,
2013-08-17 16:44:00,92.3,57.0,29.88,NW,314,5.0,15.0,30,0.00,,,0.00,weatherlink.com 1.10,2013-08-17 21:44:00,
2013-08-17 16:59:00,92.1,57.0,29.87,North,351,9.0,13.0,30,0.00,,,0.00,weatherlink.com 1.10,2013-08-17 21:59:00,
2013-08-17 17:14:00,91.5,54.0,29.88,NNE,25,3.0,14.0,28,0.00,,,0.00,weatherlink.com 1.10,2013-08-17 22:14:00,
2013-08-17 17:29:00,91.8,56.0,29.87,ENE,68,4.0,15.0,30,0.00,,,0.00,weatherlink.com 1.10,2013-08-17 22:29:00,
2013-08-17 17:44:00,91.9,54.0,29.87,NE,49,8.0,14.0,28,0.00,,,0.00,weatherlink.com 1.10,2013-08-17 22:44:00,
2013-08-17 17:59:00,91.5,54.0,29.87,North,8,4.0,13.0,28,0.00,,,0.00,weatherlink.com 1.10,2013-08-17 22:59:00,
2013-08-17 18:14:00,90.8,52.0,29.87,North,4,9.0,16.0,27,0.00,,,0.00,weatherlink.com 1.10,2013-08-17 23:14:00,
2013-08-17 18:29:00,90.7,53.0,29.87,NNE,17,2.0,10.0,28,0.00,,,0.00,weatherlink.com 1.10,2013-08-17 23:29:00,
2013-08-17 18:44:00,90.2,55.0,29.87,North,354,3.0,11.0,30,0.00,,,0.00,weatherlink.com 1.10,2013-08-17 23:44:00,
2013-08-17 18:59:00,89.7,53.0,29.87,NE,41,1.0,8.0,29,0.00,,,0.00,weatherlink.com 1.10,2013-08-17 23:59:00,
2013-08-17 19:14:00,89.5,55.0,29.87,North,11,3.0,10.0,31,0.00,,,0.00,weatherlink.com 1.10,2013-08-18 00:14:00,
2013-08-17 19:29:00,88.7,55.0,29.87,ENE,59,5.0,10.0,32,0.00,,,0.00,weatherlink.com 1.10,2013-08-18 00:29:00,
2013-08-17 19:44:00,87.4,56.0,29.88,NNE,20,2.0,9.0,34,0.00,,,0.00,weatherlink.com 1.10,2013-08-18 00:44:00,
2013-08-17 19:59:00,86.3,56.0,29.88,NE,41,2.0,5.0,35,0.00,,,0.00,weatherlink.com 1.10,2013-08-18 00:59:00,
2013-08-17 20:14:00,85.4,56.0,29.89,North,358,1.0,5.0,36,0.00,,,0.00,weatherlink.com 1.10,2013-08-18 01:14:00,
2013-08-17 20:29:00,84.0,56.0,29.89,NNE,18,1.0,4.0,38,0.00,,,0.00,weatherlink.com 1.10,2013-08-18 01:29:00,
2013-08-17 20:44:00,82.9,55.0,29.90,NE,43,1.0,4.0,39,0.00,,,0.00,weatherlink.com 1.10,2013-08-18 01:44:00,
2013-08-17 20:59:00,82.0,56.0,29.90,North,357,2.0,4.0,41,0.00,,,0.00,weatherlink.com 1.10,2013-08-18 01:59:00,
2013-08-17 21:14:00,81.3,57.0,29.91,NE,37,0.0,3.0,44,0.00,,,0.00,weatherlink.com 1.10,2013-08-18 02:14:00,
2013-08-17 21:29:00,80.0,57.0,29.91,NNW,337,1.0,2.0,46,0.00,,,0.00,weatherlink.com 1.10,2013-08-18 02:29:00,
2013-08-17 21:44:00,79.0,58.0,29.91,NNW,339,1.0,3.0,49,0.00,,,0.00,weatherlink.com 1.10,2013-08-18 02:44:00,
2013-08-17 21:59:00,79.2,59.0,29.92,NNE,23,0.0,5.0,50,0.00,,,0.00,weatherlink.com 1.10,2013-08-18 02:59:00,
2013-08-17 22:14:00,79.4,59.0,29.93,ENE,65,2.0,4.0,49,0.00,,,0.00,weatherlink.com 1.10,2013-08-18 03:14:00,
2013-08-17 22:29:00,79.3,59.0,29.93,North,360,0.0,4.0,50,0.00,,,0.00,weatherlink.com 1.10,2013-08-18 03:29:00,
2013-08-17 22:44:00,79.1,59.0,29.93,NE,39,0.0,5.0,50,0.00,,,0.00,weatherlink.com 1.10,2013-08-18 03:44:00,
2013-08-17 22:59:00,77.3,60.0,29.93,SSE,163,0.0,2.0,55,0.00,,,0.00,weatherlink.com 1.10,2013-08-18 03:59:00,
2013-08-17 23:14:00,74.9,59.0,29.94,South,181,0.0,1.0,59,0.00,,,0.00,weatherlink.com 1.10,2013-08-18 04:14:00,
2013-08-17 23:29:00,73.2,60.0,29.94,South,190,0.0,1.0,64,0.00,,,0.00,weatherlink.com 1.10,2013-08-18 04:29:00,
2013-08-17 23:44:00,71.6,60.0,29.95,WSW,240,0.0,1.0,67,0.00,,,0.00,weatherlink.com 1.10,2013-08-18 04:44:00,
2013-08-17 23:59:00,70.4,60.0,29.95,WSW,240,0.0,1.0,70,0.00,,,0.00,weatherlink.com 1.10,2013-08-18 04:59:00,